createdAt,value
2023-03-05T00:00:02.573Z,70.60
2023-03-05T00:01:02.571Z,71.10
2023-03-05T00:02:02.576Z,69.80
2023-03-05T00:03:02.541Z,68.20
2023-03-05T00:04:02.541Z,71.40
2023-03-05T00:05:02.489Z,63.30
2023-03-05T00:06:02.503Z,67.40
2023-03-05T00:07:02.478Z,64.80
2023-03-05T00:08:02.484Z,66.10
2023-03-05T00:09:02.454Z,66.60
2023-03-05T00:10:02.543Z,71.00
2023-03-05T00:11:02.428Z,71.10
2023-03-05T00:12:02.416Z,64.00
2023-03-05T00:13:02.405Z,62.40
2023-03-05T00:14:02.434Z,64.10
2023-03-05T00:15:02.367Z,61.20
2023-03-05T00:16:02.409Z,63.20
2023-03-05T00:17:02.353Z,66.90
2023-03-05T00:18:02.321Z,62.10
2023-03-05T00:19:02.338Z,64.00
2023-03-05T00:20:02.601Z,60.10
2023-03-05T00:21:02.339Z,64.40
2023-03-05T00:22:02.316Z,62.50
2023-03-05T00:23:02.261Z,66.90
2023-03-05T00:24:02.333Z,67.00
2023-03-05T00:25:02.244Z,63.60
2023-03-05T00:26:02.242Z,67.20
2023-03-05T00:27:02.230Z,71.60
2023-03-05T00:28:02.252Z,74.40
2023-03-05T00:29:02.223Z,71.50
2023-03-05T00:30:02.174Z,74.30
2023-03-05T00:31:02.218Z,64.60
2023-03-05T00:32:02.297Z,68.00
2023-03-05T00:33:02.178Z,69.80
2023-03-05T00:34:02.178Z,65.00
2023-03-05T00:35:02.118Z,71.50
2023-03-05T00:36:02.146Z,69.80
2023-03-05T00:37:02.103Z,66.50
2023-03-05T00:38:02.087Z,66.80
2023-03-05T00:39:02.099Z,69.50
2023-03-05T00:40:02.157Z,70.20
2023-03-05T00:41:02.091Z,71.50
2023-03-05T00:42:02.027Z,71.80
2023-03-05T00:43:02.017Z,72.10
2023-03-05T00:44:02.012Z,68.90
2023-03-05T00:45:02.027Z,71.30
2023-03-05T00:46:02.010Z,71.60
2023-03-05T00:47:01.962Z,70.60
2023-03-05T00:48:02.004Z,68.80
2023-03-05T00:49:01.944Z,69.20
2023-03-05T00:50:01.955Z,68.00
2023-03-05T00:51:01.924Z,72.20
2023-03-05T00:52:01.955Z,70.70
2023-03-05T00:53:01.891Z,64.80
2023-03-05T00:54:01.904Z,68.70
2023-03-05T00:55:01.866Z,72.30
2023-03-05T00:56:01.861Z,68.90
2023-03-05T00:57:01.875Z,69.40
2023-03-05T00:58:01.893Z,69.30
2023-03-05T00:59:01.843Z,72.30
2023-03-05T01:00:01.848Z,68.90
2023-03-05T01:01:01.810Z,69.20
2023-03-05T01:02:01.965Z,70.90
2023-03-05T01:03:01.786Z,69.10
2023-03-05T01:04:01.785Z,73.10
2023-03-05T01:05:01.777Z,67.40
2023-03-05T01:06:01.715Z,72.50
2023-03-05T01:07:01.702Z,77.10
2023-03-05T01:08:01.729Z,72.60
2023-03-05T01:09:01.707Z,69.40
2023-03-05T01:10:01.807Z,70.80
2023-03-05T01:11:01.650Z,72.90
2023-03-05T01:12:01.639Z,74.30
2023-03-05T01:13:01.639Z,75.60
2023-03-05T01:14:01.652Z,75.60
2023-03-05T01:15:01.596Z,73.30
2023-03-05T01:16:01.707Z,75.70
2023-03-05T01:17:01.632Z,81.50
2023-03-05T01:18:01.567Z,79.20
2023-03-05T01:19:01.599Z,80.80
2023-03-05T01:20:01.575Z,81.20
2023-03-05T01:21:01.552Z,75.80
2023-03-05T01:22:01.536Z,85.60
2023-03-05T01:23:01.526Z,83.90
2023-03-05T01:24:01.512Z,82.00
2023-03-05T01:25:01.484Z,82.70
2023-03-05T01:26:01.459Z,81.60
2023-03-05T01:27:01.446Z,86.50
2023-03-05T01:28:01.445Z,81.80
2023-03-05T01:29:01.416Z,88.90
2023-03-05T01:30:01.433Z,83.70
2023-03-05T01:31:01.389Z,84.30
2023-03-05T01:32:01.430Z,85.70
2023-03-05T01:33:01.372Z,86.20
2023-03-05T01:34:01.397Z,85.60
2023-03-05T01:35:01.360Z,89.30
2023-03-05T01:36:01.339Z,86.20
2023-03-05T01:37:01.323Z,85.00
2023-03-05T01:38:01.330Z,81.50
2023-03-05T01:39:01.318Z,83.80
2023-03-05T01:40:01.318Z,82.20
2023-03-05T01:41:01.281Z,78.40
2023-03-05T01:42:01.316Z,75.00
2023-03-05T01:43:01.258Z,81.50
2023-03-05T01:44:01.228Z,80.70
2023-03-05T01:45:01.276Z,82.70
2023-03-05T01:46:01.334Z,76.20
2023-03-05T01:47:01.193Z,75.10
2023-03-05T01:48:01.186Z,73.90
2023-03-05T01:49:01.168Z,76.50
2023-03-05T01:50:01.178Z,75.90
2023-03-05T01:51:01.163Z,73.80
2023-03-05T01:52:01.168Z,73.50
2023-03-05T01:53:01.204Z,73.40
2023-03-05T01:54:01.138Z,71.00
2023-03-05T01:55:01.126Z,73.30
2023-03-05T01:56:01.115Z,74.00
2023-03-05T01:57:01.074Z,75.50
2023-03-05T01:58:01.088Z,69.30
2023-03-05T01:59:01.047Z,75.00
2023-03-05T02:00:01.042Z,70.30
2023-03-05T02:01:01.077Z,76.70
2023-03-05T02:02:00.999Z,74.30
2023-03-05T02:03:00.989Z,71.80
2023-03-05T02:04:01.081Z,79.40
2023-03-05T02:05:00.987Z,72.50
2023-03-05T02:06:00.969Z,72.60
2023-03-05T02:07:00.942Z,77.30
2023-03-05T02:08:00.920Z,71.80
2023-03-05T02:09:00.953Z,79.70
2023-03-05T02:10:00.942Z,69.70
2023-03-05T02:11:00.936Z,73.10
2023-03-05T02:12:00.882Z,74.40
2023-03-05T02:13:00.865Z,72.30
2023-03-05T02:14:00.883Z,75.60
2023-03-05T02:15:00.869Z,72.50
2023-03-05T02:16:00.927Z,71.50
2023-03-05T02:17:00.850Z,67.90
2023-03-05T02:18:00.810Z,70.40
2023-03-05T02:19:00.835Z,75.30
2023-03-05T02:20:00.802Z,77.10
2023-03-05T02:21:00.792Z,64.80
2023-03-05T02:22:00.836Z,68.30
2023-03-05T02:23:00.742Z,72.40
2023-03-05T02:24:00.748Z,70.10
2023-03-05T02:25:00.738Z,74.40
2023-03-05T02:26:00.734Z,72.30
2023-03-05T02:27:00.725Z,72.40
2023-03-05T02:28:00.746Z,66.70
2023-03-05T02:29:00.688Z,66.80
2023-03-05T02:30:00.677Z,68.00
2023-03-05T02:31:00.669Z,73.60
2023-03-05T02:32:00.788Z,64.30
2023-03-05T02:33:00.681Z,71.50
2023-03-05T02:34:00.649Z,76.60
2023-03-05T02:35:00.633Z,70.60
2023-03-05T02:36:00.646Z,69.10
2023-03-05T02:37:00.567Z,72.10
2023-03-05T02:38:00.572Z,69.70
2023-03-05T02:39:00.583Z,67.90
2023-03-05T02:40:00.568Z,74.10
2023-03-05T02:41:00.533Z,77.30
2023-03-05T02:42:00.512Z,75.60
2023-03-05T02:43:00.519Z,73.80
2023-03-05T02:44:00.499Z,78.30
2023-03-05T02:45:00.501Z,74.70
2023-03-05T02:46:00.538Z,71.70
2023-03-05T02:47:00.474Z,71.90
2023-03-05T02:48:00.467Z,73.20
2023-03-05T02:49:00.483Z,74.70
2023-03-05T02:50:00.431Z,75.30
2023-03-05T02:51:00.417Z,72.80
2023-03-05T02:52:00.467Z,77.60
2023-03-05T02:53:00.406Z,75.10
2023-03-05T02:54:00.376Z,71.20
2023-03-05T02:55:00.348Z,72.60
2023-03-05T02:56:00.350Z,70.60
2023-03-05T02:57:00.338Z,76.30
2023-03-05T02:58:00.350Z,74.20
2023-03-05T02:59:00.339Z,72.70
2023-03-05T03:00:00.312Z,70.90
2023-03-05T03:01:00.315Z,68.60
2023-03-05T03:02:00.261Z,73.10
2023-03-05T03:03:00.323Z,70.60
2023-03-05T03:04:00.295Z,71.50
2023-03-05T03:05:00.254Z,71.60
2023-03-05T03:06:00.236Z,76.20
2023-03-05T03:07:00.213Z,71.60
2023-03-05T03:08:00.194Z,71.10
2023-03-05T03:09:00.178Z,74.30
2023-03-05T03:10:00.234Z,68.30
2023-03-05T03:11:00.169Z,77.80
2023-03-05T03:12:00.154Z,71.60
2023-03-05T03:13:00.150Z,70.30
2023-03-05T03:14:00.122Z,72.40
2023-03-05T03:15:00.156Z,67.20
2023-03-05T03:16:00.135Z,70.40
2023-03-05T03:17:00.117Z,76.00
2023-03-05T03:18:00.088Z,72.60
2023-03-05T03:19:00.044Z,78.30
2023-03-05T03:20:00.047Z,79.50
2023-03-05T03:21:00.050Z,74.90
2023-03-05T03:22:00.053Z,75.00
2023-03-05T03:22:59.995Z,72.90
2023-03-05T03:24:00.003Z,76.90
2023-03-05T03:24:59.983Z,74.50
2023-03-05T03:25:59.996Z,72.00
2023-03-05T03:26:59.949Z,76.20
2023-03-05T03:27:59.991Z,74.70
2023-03-05T03:28:59.937Z,73.20
2023-03-05T03:29:59.930Z,78.10
2023-03-05T03:30:59.954Z,73.50
2023-03-05T03:31:59.926Z,79.00
2023-03-05T03:32:59.881Z,78.00
2023-03-05T03:33:59.891Z,80.00
2023-03-05T03:34:59.888Z,80.80
2023-03-05T03:35:59.912Z,77.20
2023-03-05T03:36:59.865Z,76.90
2023-03-05T03:37:59.815Z,78.10
2023-03-05T03:38:59.834Z,76.50
2023-03-05T03:39:59.867Z,80.50
2023-03-05T03:40:59.772Z,74.10
2023-03-05T03:41:59.786Z,77.40
2023-03-05T03:42:59.746Z,73.40
2023-03-05T03:43:59.753Z,73.70
2023-03-05T03:44:59.746Z,82.20
2023-03-05T03:45:59.802Z,74.50
2023-03-05T03:46:59.714Z,71.70
2023-03-05T03:47:59.738Z,69.00
2023-03-05T03:48:59.683Z,70.50
2023-03-05T03:49:59.709Z,72.40
2023-03-05T03:50:59.657Z,73.20
2023-03-05T03:51:59.684Z,76.70
2023-03-05T03:52:59.642Z,67.70
2023-03-05T03:53:59.625Z,71.10
2023-03-05T03:54:59.650Z,69.40
2023-03-05T03:55:59.594Z,69.50
2023-03-05T03:56:59.610Z,66.60
2023-03-05T03:57:59.657Z,73.90
2023-03-05T03:58:59.560Z,69.20
2023-03-05T03:59:59.565Z,67.80
2023-03-05T04:00:59.532Z,69.00
2023-03-05T04:01:59.544Z,68.10
2023-03-05T04:02:59.569Z,71.30
2023-03-05T04:03:59.541Z,63.80
2023-03-05T04:04:59.525Z,73.40
2023-03-05T04:05:59.474Z,70.90
2023-03-05T04:06:59.482Z,71.80
2023-03-05T04:07:59.476Z,73.70
2023-03-05T04:08:59.436Z,71.90
2023-03-05T04:09:59.477Z,73.60
2023-03-05T04:10:59.441Z,74.50
2023-03-05T04:11:59.423Z,73.00
2023-03-05T04:12:59.379Z,69.40
2023-03-05T04:13:59.376Z,69.80
2023-03-05T04:14:59.378Z,66.40
2023-03-05T04:15:59.444Z,68.30
2023-03-05T04:16:59.331Z,64.60
2023-03-05T04:17:59.322Z,71.50
2023-03-05T04:18:59.321Z,66.20
2023-03-05T04:19:59.310Z,70.30
2023-03-05T04:20:59.293Z,73.20
2023-03-05T04:21:59.323Z,67.40
2023-03-05T04:22:59.297Z,69.50
2023-03-05T04:23:59.244Z,71.70
2023-03-05T04:24:59.259Z,71.10
2023-03-05T04:25:59.253Z,73.50
2023-03-05T04:26:59.247Z,70.50
2023-03-05T04:27:59.222Z,69.70
2023-03-05T04:28:59.176Z,73.00
2023-03-05T04:29:59.165Z,68.20
2023-03-05T04:30:59.313Z,68.50
2023-03-05T04:31:59.171Z,68.80
2023-03-05T04:32:59.131Z,74.00
2023-03-05T04:33:59.159Z,74.20
2023-03-05T04:34:59.133Z,72.10
2023-03-05T04:35:59.173Z,75.60
2023-03-05T04:36:59.110Z,71.00
2023-03-05T04:37:59.081Z,72.00
2023-03-05T04:38:59.048Z,78.10
2023-03-05T04:39:59.064Z,70.40
2023-03-05T04:40:59.063Z,79.50
2023-03-05T04:41:59.007Z,75.70
2023-03-05T04:42:59.005Z,76.20
2023-03-05T04:43:58.991Z,75.50
2023-03-05T04:44:58.989Z,75.10
2023-03-05T04:45:59.027Z,73.50
2023-03-05T04:46:58.963Z,77.00
2023-03-05T04:47:59.021Z,74.60
2023-03-05T04:48:58.916Z,76.20
2023-03-05T04:49:58.935Z,78.60
2023-03-05T04:50:58.912Z,73.90
2023-03-05T04:51:58.911Z,72.20
2023-03-05T04:52:58.896Z,70.50
2023-03-05T04:53:58.874Z,71.40
2023-03-05T04:54:58.850Z,74.80
2023-03-05T04:55:58.846Z,68.80
2023-03-05T04:56:58.825Z,70.80
2023-03-05T04:57:58.861Z,71.10
2023-03-05T04:58:58.793Z,68.10
2023-03-05T04:59:58.786Z,65.80
2023-03-05T05:00:58.787Z,74.70
2023-03-05T05:01:58.838Z,75.80
2023-03-05T05:02:58.807Z,74.70
2023-03-05T05:03:58.788Z,73.50
2023-03-05T05:04:58.727Z,72.30
2023-03-05T05:05:58.724Z,68.50
2023-03-05T05:06:58.708Z,75.30
2023-03-05T05:07:58.738Z,70.50
2023-03-05T05:08:58.709Z,71.60
2023-03-05T05:09:58.731Z,69.30
2023-03-05T05:10:58.661Z,71.20
2023-03-05T05:11:58.634Z,78.30
2023-03-05T05:12:58.689Z,74.80
2023-03-05T05:13:58.659Z,75.40
2023-03-05T05:14:58.608Z,73.70
2023-03-05T05:15:58.660Z,73.20
2023-03-05T05:16:58.571Z,76.30
2023-03-05T05:17:59.533Z,75.00
2023-03-05T05:18:58.612Z,80.30
2023-03-05T05:19:58.549Z,77.20
2023-03-05T05:20:58.528Z,75.70
2023-03-05T05:21:58.566Z,72.00
2023-03-05T05:22:58.503Z,77.40
2023-03-05T05:23:58.519Z,70.70
2023-03-05T05:24:58.542Z,78.30
2023-03-05T05:25:58.487Z,80.50
2023-03-05T05:26:58.463Z,76.40
2023-03-05T05:27:58.472Z,77.40
2023-03-05T05:28:58.432Z,86.50
2023-03-05T05:29:58.443Z,81.40
2023-03-05T05:30:58.434Z,82.10
2023-03-05T05:31:58.441Z,81.00
2023-03-05T05:32:58.413Z,82.70
2023-03-05T05:33:58.406Z,79.80
2023-03-05T05:34:58.401Z,81.20
2023-03-05T05:35:58.404Z,81.60
2023-03-05T05:36:58.337Z,79.30
2023-03-05T05:37:58.329Z,77.00
2023-03-05T05:38:58.327Z,80.00
2023-03-05T05:39:58.317Z,83.40
2023-03-05T05:40:58.312Z,76.10
2023-03-05T05:41:58.274Z,77.70
2023-03-05T05:42:58.290Z,76.30
2023-03-05T05:43:58.254Z,75.70
2023-03-05T05:44:58.239Z,71.80
2023-03-05T05:45:58.387Z,67.30
2023-03-05T05:46:58.217Z,70.00
2023-03-05T05:47:58.221Z,66.50
2023-03-05T05:48:58.199Z,62.80
2023-03-05T05:49:58.174Z,61.10
2023-03-05T05:50:58.168Z,63.30
2023-03-05T05:51:58.194Z,64.40
2023-03-05T05:52:58.164Z,65.40
2023-03-05T05:53:58.137Z,65.50
2023-03-05T05:54:58.117Z,64.90
2023-03-05T05:55:58.170Z,65.30
2023-03-05T05:56:58.092Z,66.80
2023-03-05T05:57:58.134Z,70.00
2023-03-05T05:58:58.080Z,68.60
2023-03-05T05:59:58.049Z,73.20
2023-03-05T06:00:58.036Z,66.80
2023-03-05T06:01:58.070Z,68.00
2023-03-05T06:02:58.156Z,64.90
2023-03-05T06:03:58.062Z,72.60
2023-03-05T06:04:58.405Z,71.10
2023-03-05T06:05:57.996Z,72.50
2023-03-05T06:06:57.996Z,73.20
2023-03-05T06:07:57.991Z,81.00
2023-03-05T06:08:57.981Z,78.30
2023-03-05T06:09:57.973Z,75.10
2023-03-05T06:10:57.925Z,86.10
2023-03-05T06:11:57.914Z,79.70
2023-03-05T06:12:57.907Z,84.00
2023-03-05T06:13:57.888Z,81.70
2023-03-05T06:14:57.875Z,84.20
2023-03-05T06:15:57.884Z,89.00
2023-03-05T06:16:57.849Z,91.00
2023-03-05T06:17:57.852Z,87.80
2023-03-05T06:18:57.862Z,90.30
2023-03-05T06:19:57.813Z,89.30
2023-03-05T06:20:57.801Z,81.50
2023-03-05T06:21:57.859Z,76.30
2023-03-05T06:22:57.794Z,82.30
2023-03-05T06:23:57.780Z,74.10
2023-03-05T06:24:57.781Z,79.70
2023-03-05T06:25:57.726Z,76.10
2023-03-05T06:26:57.732Z,73.90
2023-03-05T06:27:57.732Z,72.10
2023-03-05T06:28:57.715Z,72.20
2023-03-05T06:29:57.725Z,71.90
2023-03-05T06:30:57.722Z,73.30
2023-03-05T06:31:57.725Z,74.00
2023-03-05T06:32:57.736Z,69.70
2023-03-05T06:33:57.667Z,72.90
2023-03-05T06:34:57.625Z,72.60
2023-03-05T06:35:57.654Z,66.70
2023-03-05T06:36:57.603Z,64.30
2023-03-05T06:37:57.582Z,63.30
2023-03-05T06:38:57.589Z,60.70
2023-03-05T06:39:57.579Z,68.20
2023-03-05T06:40:57.548Z,64.40
2023-03-05T06:41:57.546Z,61.40
2023-03-05T06:42:57.516Z,63.30
2023-03-05T06:43:57.524Z,63.00
2023-03-05T06:44:57.495Z,59.90
2023-03-05T06:45:57.565Z,57.60
2023-03-05T06:46:57.464Z,58.80
2023-03-05T06:47:57.459Z,62.40
2023-03-05T06:48:57.489Z,61.30
2023-03-05T06:49:57.438Z,62.70
2023-03-05T06:50:57.444Z,58.00
2023-03-05T06:51:57.450Z,57.70
2023-03-05T06:52:57.402Z,62.10
2023-03-05T06:53:57.396Z,59.10
2023-03-05T06:54:57.373Z,56.30
2023-03-05T06:55:57.364Z,60.30
2023-03-05T06:56:57.368Z,61.40
2023-03-05T06:57:57.370Z,54.50
2023-03-05T06:58:57.358Z,60.10
2023-03-05T06:59:57.306Z,56.50
2023-03-05T07:00:57.309Z,56.40
2023-03-05T07:01:57.338Z,57.00
2023-03-05T07:02:57.284Z,52.50
2023-03-05T07:03:57.289Z,55.00
2023-03-05T07:04:57.268Z,50.90
2023-03-05T07:05:57.230Z,54.60
2023-03-05T07:06:57.210Z,54.80
2023-03-05T07:07:57.268Z,53.80
2023-03-05T07:08:57.199Z,52.80
2023-03-05T07:09:57.201Z,52.20
2023-03-05T07:10:57.160Z,50.60
2023-03-05T07:11:57.146Z,49.60
2023-03-05T07:12:57.141Z,51.70
2023-03-05T07:13:57.144Z,49.60
2023-03-05T07:14:57.118Z,48.30
2023-03-05T07:15:57.151Z,48.00
2023-03-05T07:16:57.089Z,45.00
2023-03-05T07:17:57.114Z,47.40
2023-03-05T07:18:57.093Z,48.90
2023-03-05T07:19:57.046Z,48.30
2023-03-05T07:20:57.057Z,49.70
2023-03-05T07:21:57.086Z,47.40
2023-03-05T07:22:57.045Z,47.80
2023-03-05T07:23:57.050Z,46.10
2023-03-05T07:24:57.110Z,46.20
2023-03-05T07:25:57.001Z,46.50
2023-03-05T07:26:56.979Z,46.10
2023-03-05T07:27:57.014Z,49.40
2023-03-05T07:28:56.931Z,48.60
2023-03-05T07:29:56.929Z,45.90
2023-03-05T07:30:57.010Z,45.80
2023-03-05T07:31:56.901Z,46.30
2023-03-05T07:32:56.874Z,49.90
2023-03-05T07:33:56.918Z,49.50
2023-03-05T07:34:56.880Z,48.80
2023-03-05T07:35:56.908Z,46.50
2023-03-05T07:36:56.854Z,44.70
2023-03-05T07:37:56.822Z,47.40
2023-03-05T07:38:56.859Z,49.10
2023-03-05T07:39:57.138Z,46.80
2023-03-05T07:40:56.783Z,48.60
2023-03-05T07:41:56.776Z,48.70
2023-03-05T07:42:56.784Z,45.50
2023-03-05T07:43:56.768Z,44.70
2023-03-05T07:44:56.727Z,43.30
2023-03-05T07:45:56.840Z,43.20
2023-03-05T07:46:56.709Z,41.60
2023-03-05T07:47:56.703Z,43.30
2023-03-05T07:48:56.682Z,41.50
2023-03-05T07:49:56.658Z,42.10
2023-03-05T07:50:56.666Z,41.60
2023-03-05T07:51:56.664Z,42.50
2023-03-05T07:52:56.630Z,41.00
2023-03-05T07:53:56.640Z,39.80
2023-03-05T07:54:56.609Z,41.40
2023-03-05T07:55:56.604Z,39.10
2023-03-05T07:56:56.598Z,32.60
2023-03-05T07:57:56.606Z,33.00
2023-03-05T07:58:56.552Z,34.70
2023-03-05T07:59:56.537Z,34.90
2023-03-05T08:00:56.538Z,36.70
2023-03-05T08:01:56.523Z,37.10
2023-03-05T08:02:56.517Z,37.10
2023-03-05T08:03:56.657Z,39.00
2023-03-05T08:04:56.494Z,38.00
2023-03-05T08:05:56.469Z,35.90
2023-03-05T08:06:56.483Z,37.40
2023-03-05T08:07:56.431Z,32.20
2023-03-05T08:08:56.427Z,36.10
2023-03-05T08:09:56.449Z,33.70
2023-03-05T08:10:56.387Z,34.60
2023-03-05T08:11:56.399Z,34.00
2023-03-05T08:12:56.365Z,33.80
2023-03-05T08:13:56.359Z,35.30
2023-03-05T08:14:56.350Z,34.80
2023-03-05T08:15:56.405Z,37.70
2023-03-05T08:16:56.318Z,34.80
2023-03-05T08:17:56.327Z,32.80
2023-03-05T08:18:56.293Z,30.50
2023-03-05T08:19:56.269Z,32.40
2023-03-05T08:20:56.269Z,32.80
2023-03-05T08:21:56.511Z,33.40
2023-03-05T08:22:56.244Z,33.60
2023-03-05T08:23:56.229Z,35.50
2023-03-05T08:24:56.228Z,33.00
2023-03-05T08:25:56.209Z,31.20
2023-03-05T08:26:56.210Z,31.60
2023-03-05T08:27:56.200Z,31.20
2023-03-05T08:28:56.176Z,30.00
2023-03-05T08:29:56.145Z,29.40
2023-03-05T08:30:56.183Z,29.90
2023-03-05T08:31:56.127Z,29.70
2023-03-05T08:32:56.116Z,27.10
2023-03-05T08:33:56.188Z,26.20
2023-03-05T08:34:56.083Z,27.60
2023-03-05T08:35:56.103Z,28.20
2023-03-05T08:36:56.052Z,28.70
2023-03-05T08:37:56.121Z,29.40
2023-03-05T08:38:56.048Z,26.40
2023-03-05T08:39:56.035Z,29.60
2023-03-05T08:40:56.020Z,29.80
2023-03-05T08:41:55.984Z,29.40
2023-03-05T08:42:55.992Z,26.40
2023-03-05T08:43:55.966Z,27.70
2023-03-05T08:44:55.956Z,29.40
2023-03-05T08:45:55.982Z,30.20
2023-03-05T08:46:56.025Z,30.10
2023-03-05T08:47:55.961Z,30.80
2023-03-05T08:48:55.916Z,30.40
2023-03-05T08:49:55.905Z,31.10
2023-03-05T08:50:55.869Z,32.00
2023-03-05T08:51:55.915Z,26.00
2023-03-05T08:52:55.873Z,31.40
2023-03-05T08:53:55.827Z,29.90
2023-03-05T08:54:55.809Z,29.20
2023-03-05T08:55:55.814Z,26.90
2023-03-05T08:56:55.803Z,28.70
2023-03-05T08:57:55.932Z,31.30
2023-03-05T08:58:55.776Z,31.00
2023-03-05T08:59:55.773Z,29.10
2023-03-05T09:00:55.749Z,28.90
2023-03-05T09:01:55.870Z,26.10
2023-03-05T09:02:55.746Z,25.90
2023-03-05T09:03:55.747Z,28.40
2023-03-05T09:04:55.700Z,28.00
2023-03-05T09:05:55.684Z,25.10
2023-03-05T09:06:55.679Z,27.50
2023-03-05T09:07:55.721Z,27.80
2023-03-05T09:08:55.683Z,27.50
2023-03-05T09:09:55.661Z,26.60
2023-03-05T09:10:55.609Z,26.50
2023-03-05T09:11:55.598Z,28.40
2023-03-05T09:12:55.584Z,25.90
2023-03-05T09:13:55.578Z,25.40
2023-03-05T09:14:55.553Z,23.60
2023-03-05T09:15:55.646Z,24.20
2023-03-05T09:16:55.531Z,24.40
2023-03-05T09:17:55.520Z,25.90
2023-03-05T09:18:55.538Z,25.50
2023-03-05T09:19:55.499Z,26.90
2023-03-05T09:20:55.472Z,25.40
2023-03-05T09:21:57.097Z,25.80
2023-03-05T09:22:55.463Z,24.40
2023-03-05T09:23:55.499Z,23.50
2023-03-05T09:24:55.586Z,26.60
2023-03-05T09:25:55.439Z,24.40
2023-03-05T09:26:55.407Z,24.30
2023-03-05T09:27:55.423Z,23.60
2023-03-05T09:28:55.370Z,22.00
2023-03-05T09:29:55.384Z,23.60
2023-03-05T09:30:55.340Z,23.10
2023-03-05T09:31:55.437Z,21.60
2023-03-05T09:32:55.319Z,21.60
2023-03-05T09:33:55.353Z,21.10
2023-03-05T09:34:55.310Z,19.80
2023-03-05T09:35:55.415Z,21.50
2023-03-05T09:36:55.281Z,21.30
2023-03-05T09:37:55.297Z,22.10
2023-03-05T09:38:55.251Z,23.20
2023-03-05T09:39:55.285Z,20.30
2023-03-05T09:40:55.214Z,21.40
2023-03-05T09:41:55.222Z,20.60
2023-03-05T09:42:55.192Z,22.50
2023-03-05T09:43:55.197Z,20.80
2023-03-05T09:44:55.243Z,19.50
2023-03-05T09:45:55.237Z,19.80
2023-03-05T09:46:55.149Z,19.30
2023-03-05T09:47:55.167Z,20.80
2023-03-05T09:48:55.150Z,21.50
2023-03-05T09:49:55.115Z,19.50
2023-03-05T09:50:55.115Z,19.20
2023-03-05T09:51:55.133Z,20.50
2023-03-05T09:52:55.065Z,19.40
2023-03-05T09:53:55.062Z,19.60
2023-03-05T09:54:55.041Z,16.70
2023-03-05T09:55:55.069Z,18.30
2023-03-05T09:56:55.020Z,17.90
2023-03-05T09:57:55.040Z,18.90
2023-03-05T09:58:56.230Z,22.20
2023-03-05T09:59:54.995Z,19.50
2023-03-05T10:00:54.982Z,19.10
2023-03-05T10:01:54.961Z,18.90
2023-03-05T10:02:55.005Z,20.70
2023-03-05T10:03:54.964Z,18.00
2023-03-05T10:04:54.960Z,19.80
2023-03-05T10:05:54.903Z,19.40
2023-03-05T10:06:54.897Z,20.20
2023-03-05T10:07:54.910Z,20.60
2023-03-05T10:08:54.864Z,19.30
2023-03-05T10:09:54.907Z,19.00
2023-03-05T10:10:54.838Z,17.30
2023-03-05T10:11:54.825Z,17.70
2023-03-05T10:12:54.804Z,20.30
2023-03-05T10:13:54.791Z,19.80
2023-03-05T10:14:54.790Z,18.90
2023-03-05T10:15:54.799Z,19.20
2023-03-05T10:16:54.802Z,20.50
2023-03-05T10:17:54.749Z,19.10
2023-03-05T10:18:54.729Z,20.50
2023-03-05T10:19:54.714Z,20.70
2023-03-05T10:20:54.705Z,20.00
2023-03-05T10:21:54.725Z,20.20
2023-03-05T10:22:54.685Z,19.40
2023-03-05T10:23:54.675Z,18.80
2023-03-05T10:24:54.664Z,18.80
2023-03-05T10:25:54.644Z,19.90
2023-03-05T10:26:54.661Z,20.90
2023-03-05T10:27:54.641Z,18.40
2023-03-05T10:28:54.611Z,19.30
2023-03-05T10:29:54.602Z,18.20
2023-03-05T10:30:54.623Z,19.70
2023-03-05T10:31:54.599Z,18.60
2023-03-05T10:32:54.555Z,18.50
2023-03-05T10:33:54.589Z,18.90
2023-03-05T10:34:54.523Z,19.00
2023-03-05T10:35:54.530Z,19.00
2023-03-05T10:36:56.190Z,19.40
2023-03-05T10:37:54.504Z,16.20
2023-03-05T10:38:54.470Z,12.00
2023-03-05T10:39:54.487Z,11.00
2023-03-05T10:40:54.464Z,10.60
2023-03-05T10:41:54.442Z,12.50
2023-03-05T10:42:54.429Z,12.60
2023-03-05T10:43:54.412Z,11.90
2023-03-05T10:44:54.398Z,11.40
2023-03-05T10:45:54.479Z,9.50
2023-03-05T10:46:55.975Z,10.40
2023-03-05T10:47:54.386Z,10.50
2023-03-05T10:48:54.354Z,10.60
2023-03-05T10:49:54.342Z,11.30
2023-03-05T10:50:54.325Z,11.40
2023-03-05T10:51:54.371Z,10.40
2023-03-05T10:52:54.294Z,12.10
2023-03-05T10:53:54.309Z,11.60
2023-03-05T10:54:54.348Z,11.50
2023-03-05T10:55:54.278Z,10.60
2023-03-05T10:56:54.242Z,10.50
2023-03-05T10:57:54.303Z,11.60
2023-03-05T10:58:54.228Z,10.90
2023-03-05T10:59:54.266Z,12.10
2023-03-05T11:00:55.174Z,12.00
2023-03-05T11:01:54.177Z,10.50
2023-03-05T11:02:54.260Z,12.00
2023-03-05T11:03:54.183Z,12.70
2023-03-05T11:04:54.146Z,11.40
2023-03-05T11:05:54.183Z,13.40
2023-03-05T11:06:54.171Z,10.80
2023-03-05T11:07:54.122Z,14.00
2023-03-05T11:08:54.104Z,12.30
2023-03-05T11:09:54.150Z,12.00
2023-03-05T11:10:54.055Z,12.40
2023-03-05T11:11:54.054Z,12.60
2023-03-05T11:12:54.069Z,12.70
2023-03-05T11:13:54.065Z,12.10
2023-03-05T11:14:54.004Z,12.70
2023-03-05T11:15:54.038Z,13.20
2023-03-05T11:16:53.995Z,12.30
2023-03-05T11:17:53.994Z,11.00
2023-03-05T11:18:53.982Z,12.60
2023-03-05T11:19:53.959Z,12.00
2023-03-05T11:20:53.930Z,11.90
2023-03-05T11:21:53.972Z,11.90
2023-03-05T11:22:53.898Z,11.80
2023-03-05T11:23:53.885Z,12.00
2023-03-05T11:24:53.883Z,11.70
2023-03-05T11:25:53.869Z,11.40
2023-03-05T11:26:53.876Z,12.20
2023-03-05T11:27:54.886Z,12.80
2023-03-05T11:28:53.848Z,14.40
2023-03-05T11:29:53.817Z,12.30
2023-03-05T11:30:53.854Z,12.50
2023-03-05T11:31:53.782Z,10.90
2023-03-05T11:32:53.804Z,14.40
2023-03-05T11:33:53.785Z,11.70
2023-03-05T11:34:53.754Z,11.50
2023-03-05T11:35:53.761Z,12.50
2023-03-05T11:36:53.718Z,11.80
2023-03-05T11:37:53.721Z,11.80
2023-03-05T11:38:53.735Z,13.30
2023-03-05T11:39:53.784Z,13.70
2023-03-05T11:40:53.674Z,12.70
2023-03-05T11:41:53.689Z,11.70
2023-03-05T11:42:53.650Z,11.80
2023-03-05T11:43:53.627Z,12.10
2023-03-05T11:44:53.622Z,11.60
2023-03-05T11:45:53.653Z,11.70
2023-03-05T11:46:53.627Z,11.30
2023-03-05T11:47:53.596Z,11.90
2023-03-05T11:48:53.567Z,11.60
2023-03-05T11:49:53.564Z,12.50
2023-03-05T11:50:53.580Z,12.20
2023-03-05T11:51:53.562Z,12.10
2023-03-05T11:52:53.529Z,12.50
2023-03-05T11:53:53.500Z,12.60
2023-03-05T11:54:53.501Z,12.00
2023-03-05T11:55:53.512Z,12.20
2023-03-05T11:56:53.476Z,12.10
2023-03-05T11:57:53.504Z,11.60
2023-03-05T11:58:53.469Z,11.40
2023-03-05T11:59:53.457Z,11.80
2023-03-05T12:00:53.485Z,12.50
2023-03-05T12:01:53.403Z,12.10
2023-03-05T12:02:53.509Z,12.00
2023-03-05T12:03:53.475Z,12.20
2023-03-05T12:04:53.354Z,12.20
2023-03-05T12:05:53.354Z,11.30
2023-03-05T12:06:53.344Z,10.40
2023-03-05T12:07:53.330Z,10.30
2023-03-05T12:08:53.321Z,11.20
2023-03-05T12:09:53.395Z,12.30
2023-03-05T12:10:53.288Z,11.40
2023-03-05T12:11:53.272Z,12.20
2023-03-05T12:12:53.260Z,11.20
2023-03-05T12:13:53.244Z,11.50
2023-03-05T12:14:53.266Z,11.60
2023-03-05T12:15:53.257Z,12.20
2023-03-05T12:16:53.239Z,10.60
2023-03-05T12:17:53.205Z,11.80
2023-03-05T12:18:53.176Z,11.20
2023-03-05T12:19:53.182Z,10.60
2023-03-05T12:20:53.328Z,11.70
2023-03-05T12:21:53.179Z,11.30
2023-03-05T12:22:53.126Z,12.50
2023-03-05T12:23:53.144Z,11.20
2023-03-05T12:24:53.100Z,10.90
2023-03-05T12:25:53.114Z,11.00
2023-03-05T12:26:53.086Z,11.90
2023-03-05T12:27:53.089Z,12.10
2023-03-05T12:28:53.065Z,12.40
2023-03-05T12:29:53.096Z,11.20
2023-03-05T12:30:53.026Z,10.80
2023-03-05T12:31:53.142Z,11.80
2023-03-05T12:32:52.993Z,12.00
2023-03-05T12:33:53.029Z,12.00
2023-03-05T12:34:53.023Z,11.20
2023-03-05T12:35:53.018Z,12.30
2023-03-05T12:36:53.406Z,12.10
2023-03-05T12:37:52.976Z,12.60
2023-03-05T12:38:52.928Z,15.20
2023-03-05T12:39:52.984Z,14.20
2023-03-05T12:40:53.698Z,12.20
2023-03-05T12:41:52.886Z,12.00
2023-03-05T12:42:52.911Z,13.60
2023-03-05T12:43:52.853Z,12.30
2023-03-05T12:44:52.834Z,12.50
2023-03-05T12:45:52.889Z,13.40
2023-03-05T12:46:52.855Z,14.00
2023-03-05T12:47:52.817Z,14.00
2023-03-05T12:48:52.812Z,13.00
2023-03-05T12:49:52.784Z,14.20
2023-03-05T12:50:52.859Z,12.70
2023-03-05T12:51:52.791Z,13.30